Unstoppable — SH827 — position and weather

sailwx.info

Track history (hours):
 
Tides and Currents Weather Stations Pressure Air Temp Water Temp Dewpoint Dewpoint Depression Visibility Wind Speed Wind Dir Waves Ship Positions

Unstoppable

Last reported at 2018-May-26 07:23 UTC. Time now 2018-Jul-19 23:01 UTC.
Position S 27°13' E 153°06'.
Warning: this ship's position is 54 days out of date.

Length 11 m.

Type: Sailing vessel. MMSI: 503041260.

Date/timePositionNaut miles runAvg speedWind from/ knotsBaromVisibWave heightAir tempDewpointWater temp
2018-May-26 07:23S 27°13' E 153°06'0 0.0
2018-May-26 06:56S 27°13' E 153°06'2 4.0
2018-May-26 06:30S 27°11' E 153°06'3 2.8
2018-May-26 05:30S 27°08' E 153°06'2 3.7
2018-May-26 05:00S 27°10' E 153°06'3 5.3
2018-May-26 04:31S 27°13' E 153°06'0 0.2
2018-May-26 04:00S 27°13' E 153°06'0 0.0
2018-May-26 03:30S 27°13' E 153°06'0 0.0
2018-May-26 03:00S 27°13' E 153°06'0 0.0
2018-May-26 02:30S 27°13' E 153°06'0 0.0
2018-May-26 02:00S 27°13' E 153°06'0 0.0
2018-May-26 01:30S 27°13' E 153°06'0 0.0
2018-May-26 01:00S 27°13' E 153°06'0 0.0
2018-May-26 00:30S 27°13' E 153°06'0 0.0
2018-May-26 00:00S 27°13' E 153°06'0 0.0
2018-May-25 23:30S 27°13' E 153°06'0 0.0
2018-May-25 23:00S 27°13' E 153°06'0 0.0
2018-May-25 22:30S 27°13' E 153°06'0 0.0
2018-May-25 22:00S 27°13' E 153°06'0 0.0
2018-May-25 21:30S 27°13' E 153°06'0 0.0
2018-May-25 20:57S 27°13' E 153°06'0 0.0
2018-May-25 20:30S 27°13' E 153°06'0 0.0
2018-May-25 20:00S 27°13' E 153°06'0 0.0
2018-May-25 19:30S 27°13' E 153°06'0 0.0
2018-May-25 19:00S 27°13' E 153°06'0 0.0
2018-May-25 18:30S 27°13' E 153°06'0 0.0
2018-May-25 17:57S 27°13' E 153°06'0 0.0
2018-May-25 17:30S 27°13' E 153°06'0 0.0
2018-May-25 17:00S 27°13' E 153°06'0 0.0
2018-May-25 16:30S 27°13' E 153°06'0 0.0
2018-May-25 16:00S 27°13' E 153°06'0 0.0
2018-May-25 15:30S 27°13' E 153°06'0 0.0
2018-May-25 15:00S 27°13' E 153°06'0 0.0
2018-May-25 14:30S 27°13' E 153°06'0 0.0
2018-May-25 14:00S 27°13' E 153°06'0 0.0
2018-May-25 13:30S 27°13' E 153°06'0 0.0
2018-May-25 13:00S 27°13' E 153°06'0 0.0
2018-May-25 12:27S 27°13' E 153°06'0 0.0
2018-May-25 12:00S 27°13' E 153°06'0 0.0
2018-May-25 11:30S 27°13' E 153°06'0 0.0
2018-May-25 11:00S 27°13' E 153°06'0 0.0
2018-May-25 10:27S 27°13' E 153°06'0 0.0
2018-May-25 10:00S 27°13' E 153°06'0 0.0
2018-May-25 09:30S 27°13' E 153°06'0 0.0
2018-May-25 08:59S 27°13' E 153°06'0 0.0
2018-May-25 08:29S 27°13' E 153°06'0 0.0
2018-May-25 07:59S 27°13' E 153°06'0 0.0
2018-May-25 07:29S 27°13' E 153°06'0 0.0
2018-May-25 06:59S 27°13' E 153°06'0 0.0
2018-May-25 06:29S 27°13' E 153°06'0 0.0
2018-May-25 05:59S 27°13' E 153°06'0 0.0
2018-May-25 05:29S 27°13' E 153°06'0 0.0
2018-May-25 04:59S 27°13' E 153°06'0 0.0
2018-May-25 04:29S 27°13' E 153°06'  
2018-May-19 08:51S 27°13' E 153°06'1 1.7
2018-May-19 08:30S 27°12' E 153°06'1 1.9
2018-May-19 08:00S 27°11' E 153°06'3 5.8
2018-May-19 07:30S 27°11' E 153°09'2 4.9
2018-May-19 07:00S 27°11' E 153°12'2 4.6
2018-May-19 06:30S 27°11' E 153°14'2 0.5
2018-May-19 01:22S 27°12' E 153°16'3 7.0
2018-May-19 01:00S 27°11' E 153°14'3 6.3
2018-May-19 00:30S 27°11' E 153°10'2 4.2
2018-May-19 00:00S 27°11' E 153°08'2 4.0
2018-May-18 23:30S 27°12' E 153°06'  
Track history (hours):
 
Tides and Currents Weather Stations Pressure Air Temp Water Temp Dewpoint Dewpoint Depression Visibility Wind Speed Wind Dir Waves Ship Positions

Unstoppable

Last reported at 2018-May-26 07:23 UTC. Time now 2018-Jul-19 23:01 UTC.
Position S 27°13' E 153°06'.
Warning: this ship's position is 54 days out of date.

Length 11 m.

Type: Sailing vessel. MMSI: 503041260.

Date/timePositionNaut miles runAvg speedWind from/ knotsBaromVisibWave heightAir tempDewpointWater temp
2018-May-26 07:23S 27°13' E 153°06'0 0.0
2018-May-26 06:56S 27°13' E 153°06'2 4.0
2018-May-26 06:30S 27°11' E 153°06'3 2.8
2018-May-26 05:30S 27°08' E 153°06'2 3.7
2018-May-26 05:00S 27°10' E 153°06'3 5.3
2018-May-26 04:31S 27°13' E 153°06'0 0.2
2018-May-26 04:00S 27°13' E 153°06'0 0.0
2018-May-26 03:30S 27°13' E 153°06'0 0.0
2018-May-26 03:00S 27°13' E 153°06'0 0.0
2018-May-26 02:30S 27°13' E 153°06'0 0.0
2018-May-26 02:00S 27°13' E 153°06'0 0.0
2018-May-26 01:30S 27°13' E 153°06'0 0.0
2018-May-26 01:00S 27°13' E 153°06'0 0.0
2018-May-26 00:30S 27°13' E 153°06'0 0.0
2018-May-26 00:00S 27°13' E 153°06'0 0.0
2018-May-25 23:30S 27°13' E 153°06'0 0.0
2018-May-25 23:00S 27°13' E 153°06'0 0.0
2018-May-25 22:30S 27°13' E 153°06'0 0.0
2018-May-25 22:00S 27°13' E 153°06'0 0.0
2018-May-25 21:30S 27°13' E 153°06'0 0.0
2018-May-25 20:57S 27°13' E 153°06'0 0.0
2018-May-25 20:30S 27°13' E 153°06'0 0.0
2018-May-25 20:00S 27°13' E 153°06'0 0.0
2018-May-25 19:30S 27°13' E 153°06'0 0.0
2018-May-25 19:00S 27°13' E 153°06'0 0.0
2018-May-25 18:30S 27°13' E 153°06'0 0.0
2018-May-25 17:57S 27°13' E 153°06'0 0.0
2018-May-25 17:30S 27°13' E 153°06'0 0.0
2018-May-25 17:00S 27°13' E 153°06'0 0.0
2018-May-25 16:30S 27°13' E 153°06'0 0.0
2018-May-25 16:00S 27°13' E 153°06'0 0.0
2018-May-25 15:30S 27°13' E 153°06'0 0.0
2018-May-25 15:00S 27°13' E 153°06'0 0.0
2018-May-25 14:30S 27°13' E 153°06'0 0.0
2018-May-25 14:00S 27°13' E 153°06'0 0.0
2018-May-25 13:30S 27°13' E 153°06'0 0.0
2018-May-25 13:00S 27°13' E 153°06'0 0.0
2018-May-25 12:27S 27°13' E 153°06'0 0.0
2018-May-25 12:00S 27°13' E 153°06'0 0.0
2018-May-25 11:30S 27°13' E 153°06'0 0.0
2018-May-25 11:00S 27°13' E 153°06'0 0.0
2018-May-25 10:27S 27°13' E 153°06'0 0.0
2018-May-25 10:00S 27°13' E 153°06'0 0.0
2018-May-25 09:30S 27°13' E 153°06'0 0.0
2018-May-25 08:59S 27°13' E 153°06'0 0.0
2018-May-25 08:29S 27°13' E 153°06'0 0.0
2018-May-25 07:59S 27°13' E 153°06'0 0.0
2018-May-25 07:29S 27°13' E 153°06'0 0.0
2018-May-25 06:59S 27°13' E 153°06'0 0.0
2018-May-25 06:29S 27°13' E 153°06'0 0.0
2018-May-25 05:59S 27°13' E 153°06'0 0.0
2018-May-25 05:29S 27°13' E 153°06'0 0.0
2018-May-25 04:59S 27°13' E 153°06'0 0.0
2018-May-25 04:29S 27°13' E 153°06'  
2018-May-19 08:51S 27°13' E 153°06'1 1.7
2018-May-19 08:30S 27°12' E 153°06'1 1.9
2018-May-19 08:00S 27°11' E 153°06'3 5.8
2018-May-19 07:30S 27°11' E 153°09'2 4.9
2018-May-19 07:00S 27°11' E 153°12'2 4.6
2018-May-19 06:30S 27°11' E 153°14'2 0.5
2018-May-19 01:22S 27°12' E 153°16'3 7.0
2018-May-19 01:00S 27°11' E 153°14'3 6.3
2018-May-19 00:30S 27°11' E 153°10'2 4.2
2018-May-19 00:00S 27°11' E 153°08'2 4.0
2018-May-18 23:30S 27°12' E 153°06'  

Dump ship's entire track history